sensor_id;sensor_type;location;lat;lon;timestamp;P1;durP1;ratioP1;P2;durP2;ratioP2
42600;SDS011;28229;48.856;9.088;2023-12-22T00:00:33;1.67;;;0.97;;
42600;SDS011;28229;48.856;9.088;2023-12-22T00:02:59;2.67;;;0.87;;
42600;SDS011;28229;48.856;9.088;2023-12-22T00:05:25;3.07;;;1.00;;
42600;SDS011;28229;48.856;9.088;2023-12-22T00:07:52;3.07;;;0.97;;
42600;SDS011;28229;48.856;9.088;2023-12-22T00:10:18;3.10;;;1.27;;
42600;SDS011;28229;48.856;9.088;2023-12-22T00:12:44;2.07;;;1.07;;
42600;SDS011;28229;48.856;9.088;2023-12-22T00:15:10;3.37;;;1.30;;
42600;SDS011;28229;48.856;9.088;2023-12-22T00:17:36;4.40;;;1.40;;
42600;SDS011;28229;48.856;9.088;2023-12-22T00:20:02;3.90;;;1.40;;
42600;SDS011;28229;48.856;9.088;2023-12-22T00:22:30;3.33;;;1.50;;
42600;SDS011;28229;48.856;9.088;2023-12-22T00:24:56;3.73;;;1.47;;
42600;SDS011;28229;48.856;9.088;2023-12-22T00:27:31;4.10;;;1.60;;
42600;SDS011;28229;48.856;9.088;2023-12-22T00:29:57;5.27;;;1.70;;
42600;SDS011;28229;48.856;9.088;2023-12-22T00:32:23;4.63;;;1.30;;
42600;SDS011;28229;48.856;9.088;2023-12-22T00:34:49;4.03;;;1.10;;
42600;SDS011;28229;48.856;9.088;2023-12-22T00:37:16;4.37;;;1.03;;
42600;SDS011;28229;48.856;9.088;2023-12-22T00:39:42;2.57;;;1.10;;
42600;SDS011;28229;48.856;9.088;2023-12-22T00:42:10;3.03;;;1.10;;
42600;SDS011;28229;48.856;9.088;2023-12-22T00:44:36;4.33;;;1.40;;
42600;SDS011;28229;48.856;9.088;2023-12-22T00:47:03;3.67;;;1.27;;
42600;SDS011;28229;48.856;9.088;2023-12-22T00:49:29;6.40;;;1.43;;
42600;SDS011;28229;48.856;9.088;2023-12-22T00:51:55;4.67;;;1.27;;
42600;SDS011;28229;48.856;9.088;2023-12-22T00:54:21;4.23;;;1.30;;
42600;SDS011;28229;48.856;9.088;2023-12-22T00:56:47;3.77;;;1.40;;
42600;SDS011;28229;48.856;9.088;2023-12-22T00:59:14;4.13;;;1.10;;
42600;SDS011;28229;48.856;9.088;2023-12-22T01:01:40;3.47;;;1.23;;
42600;SDS011;28229;48.856;9.088;2023-12-22T01:04:06;4.07;;;1.27;;
42600;SDS011;28229;48.856;9.088;2023-12-22T01:06:36;3.97;;;1.40;;
42600;SDS011;28229;48.856;9.088;2023-12-22T01:09:03;2.50;;;1.30;;
42600;SDS011;28229;48.856;9.088;2023-12-22T01:11:29;5.10;;;1.60;;
42600;SDS011;28229;48.856;9.088;2023-12-22T01:13:55;5.13;;;1.63;;
42600;SDS011;28229;48.856;9.088;2023-12-22T01:16:21;6.10;;;1.70;;
42600;SDS011;28229;48.856;9.088;2023-12-22T01:18:48;2.23;;;1.00;;
42600;SDS011;28229;48.856;9.088;2023-12-22T01:21:14;3.63;;;1.43;;
42600;SDS011;28229;48.856;9.088;2023-12-22T01:23:41;3.27;;;1.20;;
42600;SDS011;28229;48.856;9.088;2023-12-22T01:26:07;5.50;;;1.40;;
42600;SDS011;28229;48.856;9.088;2023-12-22T01:28:33;5.50;;;1.60;;
42600;SDS011;28229;48.856;9.088;2023-12-22T01:31:00;5.83;;;1.80;;
42600;SDS011;28229;48.856;9.088;2023-12-22T01:33:27;3.20;;;1.37;;
42600;SDS011;28229;48.856;9.088;2023-12-22T01:35:53;4.27;;;1.30;;
42600;SDS011;28229;48.856;9.088;2023-12-22T01:38:19;3.70;;;1.23;;
42600;SDS011;28229;48.856;9.088;2023-12-22T01:40:45;3.03;;;1.10;;
42600;SDS011;28229;48.856;9.088;2023-12-22T01:43:11;2.20;;;1.10;;
42600;SDS011;28229;48.856;9.088;2023-12-22T01:45:39;4.10;;;1.40;;
42600;SDS011;28229;48.856;9.088;2023-12-22T01:48:09;2.50;;;1.10;;
42600;SDS011;28229;48.856;9.088;2023-12-22T01:50:35;1.57;;;1.00;;
42600;SDS011;28229;48.856;9.088;2023-12-22T01:53:02;2.87;;;0.80;;
42600;SDS011;28229;48.856;9.088;2023-12-22T01:55:29;2.33;;;0.83;;
42600;SDS011;28229;48.856;9.088;2023-12-22T01:57:55;1.90;;;0.80;;
42600;SDS011;28229;48.856;9.088;2023-12-22T02:00:22;3.07;;;1.03;;
42600;SDS011;28229;48.856;9.088;2023-12-22T02:02:48;2.63;;;0.87;;
42600;SDS011;28229;48.856;9.088;2023-12-22T02:05:14;1.83;;;0.70;;
42600;SDS011;28229;48.856;9.088;2023-12-22T02:07:41;1.30;;;0.60;;
42600;SDS011;28229;48.856;9.088;2023-12-22T02:10:08;2.80;;;0.73;;
42600;SDS011;28229;48.856;9.088;2023-12-22T02:12:38;1.17;;;0.60;;
42600;SDS011;28229;48.856;9.088;2023-12-22T02:15:04;1.80;;;0.60;;
42600;SDS011;28229;48.856;9.088;2023-12-22T02:20:22;3.27;;;0.70;;
42600;SDS011;28229;48.856;9.088;2023-12-22T02:22:52;2.43;;;0.70;;
42600;SDS011;28229;48.856;9.088;2023-12-22T02:25:19;2.63;;;0.70;;
42600;SDS011;28229;48.856;9.088;2023-12-22T02:27:49;1.70;;;0.60;;
42600;SDS011;28229;48.856;9.088;2023-12-22T02:30:50;1.50;;;0.80;;
42600;SDS011;28229;48.856;9.088;2023-12-22T02:33:22;2.23;;;0.70;;
42600;SDS011;28229;48.856;9.088;2023-12-22T02:35:50;2.60;;;1.03;;
42600;SDS011;28229;48.856;9.088;2023-12-22T02:38:20;1.93;;;0.80;;
42600;SDS011;28229;48.856;9.088;2023-12-22T02:40:46;2.70;;;1.00;;
42600;SDS011;28229;48.856;9.088;2023-12-22T02:43:13;3.20;;;1.43;;
42600;SDS011;28229;48.856;9.088;2023-12-22T02:45:39;1.27;;;0.80;;
42600;SDS011;28229;48.856;9.088;2023-12-22T02:48:05;2.23;;;0.93;;
42600;SDS011;28229;48.856;9.088;2023-12-22T02:50:32;2.17;;;0.90;;
42600;SDS011;28229;48.856;9.088;2023-12-22T02:52:58;4.00;;;1.30;;
42600;SDS011;28229;48.856;9.088;2023-12-22T02:55:24;3.87;;;1.00;;
42600;SDS011;28229;48.856;9.088;2023-12-22T02:57:50;4.20;;;1.13;;
42600;SDS011;28229;48.856;9.088;2023-12-22T03:00:16;5.00;;;1.30;;
42600;SDS011;28229;48.856;9.088;2023-12-22T03:02:42;2.70;;;1.10;;
42600;SDS011;28229;48.856;9.088;2023-12-22T03:05:08;4.10;;;1.20;;
42600;SDS011;28229;48.856;9.088;2023-12-22T03:07:34;2.60;;;0.97;;
42600;SDS011;28229;48.856;9.088;2023-12-22T03:10:01;2.77;;;1.33;;
42600;SDS011;28229;48.856;9.088;2023-12-22T03:12:27;4.63;;;1.27;;
42600;SDS011;28229;48.856;9.088;2023-12-22T03:14:53;2.97;;;1.10;;
42600;SDS011;28229;48.856;9.088;2023-12-22T03:17:19;2.90;;;1.20;;
42600;SDS011;28229;48.856;9.088;2023-12-22T03:19:45;3.73;;;1.20;;
42600;SDS011;28229;48.856;9.088;2023-12-22T03:22:11;3.33;;;0.90;;
42600;SDS011;28229;48.856;9.088;2023-12-22T03:24:37;1.77;;;1.00;;
42600;SDS011;28229;48.856;9.088;2023-12-22T03:27:04;3.33;;;1.37;;
42600;SDS011;28229;48.856;9.088;2023-12-22T03:29:30;2.83;;;1.07;;
42600;SDS011;28229;48.856;9.088;2023-12-22T03:31:56;2.67;;;1.00;;
42600;SDS011;28229;48.856;9.088;2023-12-22T03:34:22;4.30;;;0.90;;
42600;SDS011;28229;48.856;9.088;2023-12-22T03:36:48;2.90;;;0.87;;
42600;SDS011;28229;48.856;9.088;2023-12-22T03:39:15;3.30;;;0.97;;
42600;SDS011;28229;48.856;9.088;2023-12-22T03:41:41;3.80;;;1.00;;
42600;SDS011;28229;48.856;9.088;2023-12-22T03:44:07;2.77;;;1.30;;
42600;SDS011;28229;48.856;9.088;2023-12-22T03:46:34;2.63;;;1.23;;
42600;SDS011;28229;48.856;9.088;2023-12-22T03:49:00;3.73;;;1.10;;
42600;SDS011;28229;48.856;9.088;2023-12-22T03:51:26;2.53;;;1.20;;
42600;SDS011;28229;48.856;9.088;2023-12-22T03:53:52;3.07;;;1.00;;
42600;SDS011;28229;48.856;9.088;2023-12-22T03:56:18;4.40;;;0.90;;
42600;SDS011;28229;48.856;9.088;2023-12-22T03:58:45;2.37;;;1.00;;
42600;SDS011;28229;48.856;9.088;2023-12-22T04:01:13;4.50;;;1.10;;
42600;SDS011;28229;48.856;9.088;2023-12-22T04:03:40;2.87;;;0.93;;
42600;SDS011;28229;48.856;9.088;2023-12-22T04:06:07;3.40;;;1.40;;
42600;SDS011;28229;48.856;9.088;2023-12-22T04:08:33;5.23;;;1.43;;
42600;SDS011;28229;48.856;9.088;2023-12-22T04:10:59;6.57;;;1.50;;
42600;SDS011;28229;48.856;9.088;2023-12-22T04:13:25;5.47;;;1.40;;
42600;SDS011;28229;48.856;9.088;2023-12-22T04:15:51;2.10;;;1.10;;
42600;SDS011;28229;48.856;9.088;2023-12-22T04:18:17;4.67;;;1.33;;
42600;SDS011;28229;48.856;9.088;2023-12-22T04:20:43;3.63;;;1.50;;
42600;SDS011;28229;48.856;9.088;2023-12-22T04:23:10;5.37;;;1.40;;
42600;SDS011;28229;48.856;9.088;2023-12-22T04:25:36;6.73;;;1.40;;
42600;SDS011;28229;48.856;9.088;2023-12-22T04:28:12;4.07;;;1.20;;
42600;SDS011;28229;48.856;9.088;2023-12-22T04:30:38;5.40;;;1.40;;
42600;SDS011;28229;48.856;9.088;2023-12-22T04:33:04;5.70;;;1.40;;
42600;SDS011;28229;48.856;9.088;2023-12-22T04:35:30;3.87;;;1.30;;
42600;SDS011;28229;48.856;9.088;2023-12-22T04:37:59;6.20;;;1.40;;
42600;SDS011;28229;48.856;9.088;2023-12-22T04:40:25;6.43;;;1.30;;
42600;SDS011;28229;48.856;9.088;2023-12-22T04:42:51;3.13;;;1.20;;
42600;SDS011;28229;48.856;9.088;2023-12-22T04:45:17;3.80;;;1.17;;
42600;SDS011;28229;48.856;9.088;2023-12-22T04:47:44;3.90;;;1.30;;
42600;SDS011;28229;48.856;9.088;2023-12-22T04:50:10;5.23;;;1.40;;
42600;SDS011;28229;48.856;9.088;2023-12-22T04:52:36;4.10;;;1.13;;
42600;SDS011;28229;48.856;9.088;2023-12-22T04:55:02;2.00;;;1.10;;
42600;SDS011;28229;48.856;9.088;2023-12-22T04:57:28;3.10;;;1.20;;
42600;SDS011;28229;48.856;9.088;2023-12-22T04:59:54;2.60;;;1.10;;
42600;SDS011;28229;48.856;9.088;2023-12-22T05:02:20;2.47;;;1.10;;
42600;SDS011;28229;48.856;9.088;2023-12-22T05:04:47;3.87;;;1.30;;
42600;SDS011;28229;48.856;9.088;2023-12-22T05:07:13;4.17;;;1.33;;
42600;SDS011;28229;48.856;9.088;2023-12-22T05:09:40;5.13;;;1.50;;
42600;SDS011;28229;48.856;9.088;2023-12-22T05:12:07;5.00;;;1.40;;
42600;SDS011;28229;48.856;9.088;2023-12-22T05:14:34;5.73;;;1.53;;
42600;SDS011;28229;48.856;9.088;2023-12-22T05:17:00;6.87;;;1.70;;
42600;SDS011;28229;48.856;9.088;2023-12-22T05:19:27;4.57;;;1.80;;
42600;SDS011;28229;48.856;9.088;2023-12-22T05:21:53;3.33;;;1.50;;
42600;SDS011;28229;48.856;9.088;2023-12-22T05:24:22;8.37;;;1.97;;
42600;SDS011;28229;48.856;9.088;2023-12-22T05:26:48;7.40;;;1.63;;
42600;SDS011;28229;48.856;9.088;2023-12-22T05:29:14;6.53;;;2.10;;
42600;SDS011;28229;48.856;9.088;2023-12-22T05:31:41;5.67;;;1.90;;
42600;SDS011;28229;48.856;9.088;2023-12-22T05:34:07;6.33;;;1.93;;
42600;SDS011;28229;48.856;9.088;2023-12-22T05:36:36;6.87;;;1.67;;
42600;SDS011;28229;48.856;9.088;2023-12-22T05:39:02;11.83;;;2.30;;
42600;SDS011;28229;48.856;9.088;2023-12-22T05:41:28;8.50;;;2.10;;
42600;SDS011;28229;48.856;9.088;2023-12-22T05:43:54;9.03;;;2.20;;
42600;SDS011;28229;48.856;9.088;2023-12-22T05:46:20;10.80;;;2.00;;
42600;SDS011;28229;48.856;9.088;2023-12-22T05:48:47;7.50;;;2.10;;
42600;SDS011;28229;48.856;9.088;2023-12-22T05:51:13;8.00;;;1.87;;
42600;SDS011;28229;48.856;9.088;2023-12-22T05:53:39;7.70;;;2.17;;
42600;SDS011;28229;48.856;9.088;2023-12-22T05:56:18;5.47;;;1.80;;
42600;SDS011;28229;48.856;9.088;2023-12-22T05:58:46;6.53;;;2.00;;
42600;SDS011;28229;48.856;9.088;2023-12-22T06:01:16;3.80;;;1.60;;
42600;SDS011;28229;48.856;9.088;2023-12-22T06:03:43;5.03;;;1.60;;
42600;SDS011;28229;48.856;9.088;2023-12-22T06:06:09;6.70;;;1.80;;
42600;SDS011;28229;48.856;9.088;2023-12-22T06:08:35;8.00;;;1.90;;
42600;SDS011;28229;48.856;9.088;2023-12-22T06:11:03;8.33;;;1.73;;
42600;SDS011;28229;48.856;9.088;2023-12-22T06:13:29;7.27;;;1.73;;
42600;SDS011;28229;48.856;9.088;2023-12-22T06:15:55;8.03;;;2.03;;
42600;SDS011;28229;48.856;9.088;2023-12-22T06:18:21;4.57;;;1.60;;
42600;SDS011;28229;48.856;9.088;2023-12-22T06:20:47;10.00;;;2.20;;
42600;SDS011;28229;48.856;9.088;2023-12-22T06:23:16;4.97;;;2.00;;
42600;SDS011;28229;48.856;9.088;2023-12-22T06:25:42;6.13;;;1.60;;
42600;SDS011;28229;48.856;9.088;2023-12-22T06:28:08;6.53;;;1.80;;
42600;SDS011;28229;48.856;9.088;2023-12-22T06:30:34;5.73;;;1.67;;
42600;SDS011;28229;48.856;9.088;2023-12-22T06:33:01;9.43;;;2.37;;
42600;SDS011;28229;48.856;9.088;2023-12-22T06:35:27;6.50;;;1.90;;
42600;SDS011;28229;48.856;9.088;2023-12-22T06:37:53;5.43;;;1.90;;
42600;SDS011;28229;48.856;9.088;2023-12-22T06:40:21;4.70;;;1.57;;
42600;SDS011;28229;48.856;9.088;2023-12-22T06:42:48;5.27;;;1.63;;
42600;SDS011;28229;48.856;9.088;2023-12-22T06:45:14;6.97;;;1.73;;
42600;SDS011;28229;48.856;9.088;2023-12-22T06:47:40;6.97;;;1.90;;
42600;SDS011;28229;48.856;9.088;2023-12-22T06:50:06;7.80;;;2.00;;
42600;SDS011;28229;48.856;9.088;2023-12-22T06:52:33;5.70;;;2.10;;
42600;SDS011;28229;48.856;9.088;2023-12-22T06:54:59;3.77;;;1.50;;
42600;SDS011;28229;48.856;9.088;2023-12-22T06:57:25;7.20;;;1.93;;
42600;SDS011;28229;48.856;9.088;2023-12-22T06:59:51;5.37;;;1.60;;
42600;SDS011;28229;48.856;9.088;2023-12-22T07:02:17;3.87;;;1.60;;
42600;SDS011;28229;48.856;9.088;2023-12-22T07:07:49;9.77;;;1.90;;
42600;SDS011;28229;48.856;9.088;2023-12-22T07:10:16;7.27;;;1.90;;
42600;SDS011;28229;48.856;9.088;2023-12-22T07:12:42;6.30;;;1.50;;
42600;SDS011;28229;48.856;9.088;2023-12-22T07:15:08;5.90;;;1.50;;
42600;SDS011;28229;48.856;9.088;2023-12-22T07:17:35;6.57;;;1.70;;
42600;SDS011;28229;48.856;9.088;2023-12-22T07:20:03;5.50;;;2.20;;
42600;SDS011;28229;48.856;9.088;2023-12-22T07:22:30;8.57;;;2.03;;
42600;SDS011;28229;48.856;9.088;2023-12-22T07:24:56;4.80;;;1.60;;
42600;SDS011;28229;48.856;9.088;2023-12-22T07:27:22;7.97;;;2.17;;
42600;SDS011;28229;48.856;9.088;2023-12-22T07:29:48;8.93;;;2.30;;
42600;SDS011;28229;48.856;9.088;2023-12-22T07:32:15;5.73;;;1.90;;
42600;SDS011;28229;48.856;9.088;2023-12-22T07:34:41;5.83;;;1.60;;
42600;SDS011;28229;48.856;9.088;2023-12-22T07:37:10;4.70;;;1.87;;
42600;SDS011;28229;48.856;9.088;2023-12-22T07:39:36;6.70;;;1.73;;
42600;SDS011;28229;48.856;9.088;2023-12-22T07:42:02;6.70;;;1.90;;
42600;SDS011;28229;48.856;9.088;2023-12-22T07:44:28;5.23;;;1.50;;
42600;SDS011;28229;48.856;9.088;2023-12-22T07:46:57;6.40;;;1.70;;
42600;SDS011;28229;48.856;9.088;2023-12-22T07:49:26;6.30;;;2.00;;
42600;SDS011;28229;48.856;9.088;2023-12-22T07:51:52;6.20;;;1.77;;
42600;SDS011;28229;48.856;9.088;2023-12-22T07:54:19;5.40;;;1.77;;
42600;SDS011;28229;48.856;9.088;2023-12-22T07:56:45;6.37;;;1.57;;
42600;SDS011;28229;48.856;9.088;2023-12-22T07:59:11;3.87;;;1.70;;
42600;SDS011;28229;48.856;9.088;2023-12-22T08:01:37;6.10;;;1.43;;
42600;SDS011;28229;48.856;9.088;2023-12-22T08:04:03;8.17;;;1.90;;
42600;SDS011;28229;48.856;9.088;2023-12-22T08:06:30;4.57;;;1.60;;
42600;SDS011;28229;48.856;9.088;2023-12-22T08:08:56;6.87;;;2.10;;
42600;SDS011;28229;48.856;9.088;2023-12-22T08:11:22;7.07;;;1.83;;
42600;SDS011;28229;48.856;9.088;2023-12-22T08:13:51;6.53;;;2.03;;
42600;SDS011;28229;48.856;9.088;2023-12-22T08:16:17;8.57;;;1.70;;
42600;SDS011;28229;48.856;9.088;2023-12-22T08:18:43;6.73;;;2.00;;
42600;SDS011;28229;48.856;9.088;2023-12-22T08:21:09;6.10;;;2.07;;
42600;SDS011;28229;48.856;9.088;2023-12-22T08:23:35;8.13;;;2.10;;
42600;SDS011;28229;48.856;9.088;2023-12-22T08:26:04;8.93;;;2.20;;
42600;SDS011;28229;48.856;9.088;2023-12-22T08:28:30;7.57;;;2.00;;
42600;SDS011;28229;48.856;9.088;2023-12-22T08:30:56;7.20;;;2.20;;
42600;SDS011;28229;48.856;9.088;2023-12-22T08:33:22;7.80;;;2.20;;
42600;SDS011;28229;48.856;9.088;2023-12-22T08:35:50;9.77;;;2.50;;
42600;SDS011;28229;48.856;9.088;2023-12-22T08:38:16;7.57;;;2.63;;
42600;SDS011;28229;48.856;9.088;2023-12-22T08:40:43;8.90;;;3.37;;
42600;SDS011;28229;48.856;9.088;2023-12-22T08:43:09;8.90;;;2.93;;
42600;SDS011;28229;48.856;9.088;2023-12-22T08:45:35;12.07;;;2.90;;
42600;SDS011;28229;48.856;9.088;2023-12-22T08:48:01;14.23;;;2.70;;
42600;SDS011;28229;48.856;9.088;2023-12-22T08:50:28;10.20;;;2.23;;
42600;SDS011;28229;48.856;9.088;2023-12-22T08:52:54;7.67;;;2.70;;
42600;SDS011;28229;48.856;9.088;2023-12-22T08:55:20;8.43;;;2.23;;
42600;SDS011;28229;48.856;9.088;2023-12-22T08:57:46;8.23;;;2.27;;
42600;SDS011;28229;48.856;9.088;2023-12-22T09:00:12;7.03;;;2.27;;
42600;SDS011;28229;48.856;9.088;2023-12-22T09:02:39;8.83;;;2.40;;
42600;SDS011;28229;48.856;9.088;2023-12-22T09:05:05;9.67;;;2.37;;
42600;SDS011;28229;48.856;9.088;2023-12-22T09:07:33;11.53;;;2.37;;
42600;SDS011;28229;48.856;9.088;2023-12-22T09:09:59;11.23;;;2.50;;
42600;SDS011;28229;48.856;9.088;2023-12-22T09:12:25;14.23;;;2.57;;
42600;SDS011;28229;48.856;9.088;2023-12-22T09:14:51;9.33;;;2.63;;
42600;SDS011;28229;48.856;9.088;2023-12-22T09:17:17;8.63;;;2.33;;
42600;SDS011;28229;48.856;9.088;2023-12-22T09:19:44;8.90;;;2.50;;
42600;SDS011;28229;48.856;9.088;2023-12-22T09:22:10;11.67;;;2.40;;
42600;SDS011;28229;48.856;9.088;2023-12-22T09:24:36;9.10;;;2.50;;
42600;SDS011;28229;48.856;9.088;2023-12-22T09:27:02;11.93;;;2.63;;
42600;SDS011;28229;48.856;9.088;2023-12-22T09:29:30;10.53;;;2.70;;
42600;SDS011;28229;48.856;9.088;2023-12-22T09:31:57;9.03;;;2.10;;
42600;SDS011;28229;48.856;9.088;2023-12-22T09:34:25;7.30;;;2.07;;
42600;SDS011;28229;48.856;9.088;2023-12-22T09:36:53;11.77;;;2.97;;
42600;SDS011;28229;48.856;9.088;2023-12-22T09:39:20;8.50;;;2.17;;
42600;SDS011;28229;48.856;9.088;2023-12-22T09:41:47;10.30;;;2.70;;
42600;SDS011;28229;48.856;9.088;2023-12-22T09:44:16;9.27;;;2.20;;
42600;SDS011;28229;48.856;9.088;2023-12-22T09:46:45;11.20;;;2.60;;
42600;SDS011;28229;48.856;9.088;2023-12-22T09:49:13;8.03;;;2.20;;
42600;SDS011;28229;48.856;9.088;2023-12-22T09:51:40;12.03;;;2.70;;
42600;SDS011;28229;48.856;9.088;2023-12-22T09:54:08;8.13;;;2.10;;
42600;SDS011;28229;48.856;9.088;2023-12-22T09:56:36;12.27;;;2.63;;
42600;SDS011;28229;48.856;9.088;2023-12-22T09:59:11;8.17;;;2.20;;
42600;SDS011;28229;48.856;9.088;2023-12-22T10:01:40;12.97;;;2.90;;
42600;SDS011;28229;48.856;9.088;2023-12-22T10:04:13;12.20;;;2.57;;
42600;SDS011;28229;48.856;9.088;2023-12-22T10:06:43;10.10;;;2.77;;
42600;SDS011;28229;48.856;9.088;2023-12-22T10:09:13;9.07;;;2.60;;
42600;SDS011;28229;48.856;9.088;2023-12-22T10:11:43;8.80;;;2.40;;
42600;SDS011;28229;48.856;9.088;2023-12-22T10:14:10;8.97;;;2.67;;
42600;SDS011;28229;48.856;9.088;2023-12-22T10:16:37;8.10;;;1.90;;
42600;SDS011;28229;48.856;9.088;2023-12-22T10:19:04;10.07;;;2.40;;
42600;SDS011;28229;48.856;9.088;2023-12-22T10:21:31;13.00;;;2.60;;
42600;SDS011;28229;48.856;9.088;2023-12-22T10:23:57;9.00;;;2.53;;
42600;SDS011;28229;48.856;9.088;2023-12-22T10:26:24;10.17;;;2.40;;
42600;SDS011;28229;48.856;9.088;2023-12-22T10:28:50;8.10;;;2.50;;
42600;SDS011;28229;48.856;9.088;2023-12-22T10:31:16;9.50;;;2.77;;
42600;SDS011;28229;48.856;9.088;2023-12-22T10:33:43;11.30;;;2.80;;
42600;SDS011;28229;48.856;9.088;2023-12-22T10:36:10;8.13;;;2.50;;
42600;SDS011;28229;48.856;9.088;2023-12-22T10:38:36;7.17;;;2.07;;
42600;SDS011;28229;48.856;9.088;2023-12-22T10:41:03;8.77;;;2.40;;
42600;SDS011;28229;48.856;9.088;2023-12-22T10:43:30;11.87;;;2.10;;
42600;SDS011;28229;48.856;9.088;2023-12-22T10:46:03;11.87;;;2.27;;
42600;SDS011;28229;48.856;9.088;2023-12-22T10:48:30;9.30;;;2.03;;
42600;SDS011;28229;48.856;9.088;2023-12-22T10:50:56;5.90;;;1.93;;
42600;SDS011;28229;48.856;9.088;2023-12-22T10:53:23;9.73;;;1.70;;
42600;SDS011;28229;48.856;9.088;2023-12-22T10:55:49;6.13;;;1.50;;
42600;SDS011;28229;48.856;9.088;2023-12-22T10:58:17;6.50;;;2.03;;
42600;SDS011;28229;48.856;9.088;2023-12-22T11:00:46;4.10;;;1.30;;
42600;SDS011;28229;48.856;9.088;2023-12-22T11:03:16;6.23;;;1.60;;
42600;SDS011;28229;48.856;9.088;2023-12-22T11:05:45;4.20;;;1.13;;
42600;SDS011;28229;48.856;9.088;2023-12-22T11:08:13;3.83;;;1.43;;
42600;SDS011;28229;48.856;9.088;2023-12-22T11:10:42;5.90;;;1.70;;
42600;SDS011;28229;48.856;9.088;2023-12-22T11:13:10;3.80;;;1.43;;
42600;SDS011;28229;48.856;9.088;2023-12-22T11:15:38;5.90;;;1.33;;
42600;SDS011;28229;48.856;9.088;2023-12-22T11:18:05;5.70;;;1.43;;
42600;SDS011;28229;48.856;9.088;2023-12-22T11:20:32;4.83;;;1.30;;
42600;SDS011;28229;48.856;9.088;2023-12-22T11:23:00;6.47;;;1.40;;
42600;SDS011;28229;48.856;9.088;2023-12-22T11:25:27;3.03;;;1.17;;
42600;SDS011;28229;48.856;9.088;2023-12-22T11:27:54;5.77;;;1.50;;
42600;SDS011;28229;48.856;9.088;2023-12-22T11:30:22;5.50;;;1.70;;
42600;SDS011;28229;48.856;9.088;2023-12-22T11:32:49;3.67;;;1.47;;
42600;SDS011;28229;48.856;9.088;2023-12-22T11:35:16;3.50;;;1.53;;
42600;SDS011;28229;48.856;9.088;2023-12-22T11:37:43;3.53;;;1.20;;
42600;SDS011;28229;48.856;9.088;2023-12-22T11:40:09;4.23;;;1.30;;
42600;SDS011;28229;48.856;9.088;2023-12-22T11:42:40;3.83;;;1.33;;
42600;SDS011;28229;48.856;9.088;2023-12-22T11:45:09;3.00;;;0.90;;
42600;SDS011;28229;48.856;9.088;2023-12-22T11:47:37;3.87;;;1.20;;
42600;SDS011;28229;48.856;9.088;2023-12-22T11:50:08;1.73;;;0.97;;
42600;SDS011;28229;48.856;9.088;2023-12-22T11:52:35;1.77;;;0.90;;
42600;SDS011;28229;48.856;9.088;2023-12-22T11:55:01;2.50;;;0.93;;
42600;SDS011;28229;48.856;9.088;2023-12-22T11:59:54;2.90;;;1.00;;
42600;SDS011;28229;48.856;9.088;2023-12-22T12:02:21;1.63;;;0.80;;
42600;SDS011;28229;48.856;9.088;2023-12-22T12:04:47;2.60;;;0.60;;
42600;SDS011;28229;48.856;9.088;2023-12-22T12:10:12;2.27;;;0.80;;
42600;SDS011;28229;48.856;9.088;2023-12-22T12:12:40;0.97;;;0.70;;
42600;SDS011;28229;48.856;9.088;2023-12-22T12:15:07;2.17;;;0.53;;
42600;SDS011;28229;48.856;9.088;2023-12-22T12:17:37;1.17;;;0.60;;
42600;SDS011;28229;48.856;9.088;2023-12-22T12:20:05;1.13;;;0.70;;
42600;SDS011;28229;48.856;9.088;2023-12-22T12:22:33;0.97;;;0.70;;
42600;SDS011;28229;48.856;9.088;2023-12-22T12:24:59;1.27;;;0.70;;
42600;SDS011;28229;48.856;9.088;2023-12-22T12:27:27;1.03;;;0.60;;
42600;SDS011;28229;48.856;9.088;2023-12-22T12:29:53;1.03;;;0.70;;
42600;SDS011;28229;48.856;9.088;2023-12-22T12:32:19;1.50;;;0.47;;
42600;SDS011;28229;48.856;9.088;2023-12-22T12:34:49;0.93;;;0.43;;
42600;SDS011;28229;48.856;9.088;2023-12-22T12:37:15;0.80;;;0.70;;
42600;SDS011;28229;48.856;9.088;2023-12-22T12:39:42;0.93;;;0.50;;
42600;SDS011;28229;48.856;9.088;2023-12-22T12:42:09;1.13;;;0.50;;
42600;SDS011;28229;48.856;9.088;2023-12-22T12:44:40;1.10;;;0.40;;
42600;SDS011;28229;48.856;9.088;2023-12-22T12:47:12;0.40;;;0.40;;
42600;SDS011;28229;48.856;9.088;2023-12-22T12:49:38;0.47;;;0.40;;
42600;SDS011;28229;48.856;9.088;2023-12-22T12:52:05;0.30;;;0.30;;
42600;SDS011;28229;48.856;9.088;2023-12-22T12:54:32;0.27;;;0.27;;
42600;SDS011;28229;48.856;9.088;2023-12-22T12:56:59;0.50;;;0.37;;
42600;SDS011;28229;48.856;9.088;2023-12-22T12:59:25;1.07;;;0.40;;
42600;SDS011;28229;48.856;9.088;2023-12-22T13:01:51;1.50;;;0.50;;
42600;SDS011;28229;48.856;9.088;2023-12-22T13:04:18;0.73;;;0.43;;
42600;SDS011;28229;48.856;9.088;2023-12-22T13:06:48;0.30;;;0.30;;
42600;SDS011;28229;48.856;9.088;2023-12-22T13:09:15;1.70;;;0.40;;
42600;SDS011;28229;48.856;9.088;2023-12-22T13:11:43;0.33;;;0.27;;
42600;SDS011;28229;48.856;9.088;2023-12-22T13:14:23;0.40;;;0.40;;
42600;SDS011;28229;48.856;9.088;2023-12-22T13:16:53;0.43;;;0.40;;
42600;SDS011;28229;48.856;9.088;2023-12-22T13:19:25;0.40;;;0.30;;
42600;SDS011;28229;48.856;9.088;2023-12-22T13:21:53;1.13;;;0.40;;
42600;SDS011;28229;48.856;9.088;2023-12-22T13:24:20;0.57;;;0.20;;
42600;SDS011;28229;48.856;9.088;2023-12-22T13:26:47;0.20;;;0.20;;
42600;SDS011;28229;48.856;9.088;2023-12-22T13:29:24;0.40;;;0.30;;
42600;SDS011;28229;48.856;9.088;2023-12-22T13:31:50;0.50;;;0.30;;
42600;SDS011;28229;48.856;9.088;2023-12-22T13:34:16;0.30;;;0.20;;
42600;SDS011;28229;48.856;9.088;2023-12-22T13:36:42;0.40;;;0.40;;
42600;SDS011;28229;48.856;9.088;2023-12-22T13:39:09;0.53;;;0.40;;
42600;SDS011;28229;48.856;9.088;2023-12-22T13:41:38;0.40;;;0.40;;
42600;SDS011;28229;48.856;9.088;2023-12-22T13:44:12;0.40;;;0.40;;
42600;SDS011;28229;48.856;9.088;2023-12-22T13:46:38;0.43;;;0.40;;
42600;SDS011;28229;48.856;9.088;2023-12-22T13:49:07;0.40;;;0.40;;
42600;SDS011;28229;48.856;9.088;2023-12-22T13:51:44;0.40;;;0.40;;
42600;SDS011;28229;48.856;9.088;2023-12-22T13:54:11;0.30;;;0.30;;
42600;SDS011;28229;48.856;9.088;2023-12-22T13:56:37;0.57;;;0.50;;
42600;SDS011;28229;48.856;9.088;2023-12-22T13:59:07;0.30;;;0.30;;
42600;SDS011;28229;48.856;9.088;2023-12-22T14:01:34;0.60;;;0.37;;
42600;SDS011;28229;48.856;9.088;2023-12-22T14:04:01;0.37;;;0.37;;
42600;SDS011;28229;48.856;9.088;2023-12-22T14:06:27;0.83;;;0.30;;
42600;SDS011;28229;48.856;9.088;2023-12-22T14:08:55;1.13;;;0.40;;
42600;SDS011;28229;48.856;9.088;2023-12-22T14:11:21;0.63;;;0.50;;
42600;SDS011;28229;48.856;9.088;2023-12-22T14:13:48;1.00;;;0.87;;
42600;SDS011;28229;48.856;9.088;2023-12-22T14:16:15;1.23;;;0.60;;
42600;SDS011;28229;48.856;9.088;2023-12-22T14:18:42;1.20;;;0.50;;
42600;SDS011;28229;48.856;9.088;2023-12-22T14:21:08;0.90;;;0.40;;
42600;SDS011;28229;48.856;9.088;2023-12-22T14:23:34;0.40;;;0.30;;
42600;SDS011;28229;48.856;9.088;2023-12-22T14:26:00;0.37;;;0.20;;
42600;SDS011;28229;48.856;9.088;2023-12-22T14:28:26;0.37;;;0.37;;
42600;SDS011;28229;48.856;9.088;2023-12-22T14:30:53;0.73;;;0.33;;
42600;SDS011;28229;48.856;9.088;2023-12-22T14:33:19;0.40;;;0.40;;
42600;SDS011;28229;48.856;9.088;2023-12-22T14:35:46;0.40;;;0.40;;
42600;SDS011;28229;48.856;9.088;2023-12-22T14:38:12;0.57;;;0.30;;
42600;SDS011;28229;48.856;9.088;2023-12-22T14:40:38;0.40;;;0.40;;
42600;SDS011;28229;48.856;9.088;2023-12-22T14:43:04;0.33;;;0.33;;
42600;SDS011;28229;48.856;9.088;2023-12-22T14:45:30;0.40;;;0.40;;
42600;SDS011;28229;48.856;9.088;2023-12-22T14:47:56;0.53;;;0.53;;
42600;SDS011;28229;48.856;9.088;2023-12-22T14:50:22;0.33;;;0.30;;
42600;SDS011;28229;48.856;9.088;2023-12-22T14:52:49;0.60;;;0.60;;
42600;SDS011;28229;48.856;9.088;2023-12-22T14:55:15;0.40;;;0.40;;